Terminal Aerodrome Forecast
Issued by NWS

Home | Current Version | Previous Version | Text Only | Print | Product List | Glossary On
Versions: 1 2 3 4 5 6 7 8 9 10 11 12 13 14
000
FTAK31 PAFA 242334
TAFABT
TAF
PABT 242334Z 2500/2524 VRB04KT P6SM -SN SCT015 BKN025 OVC035
     FM250200 VRB04KT 4SM -SN BR BKN025
     FM250600 VRB04KT 2SM -SN BR OVC025
     FM252000 VRB04KT 4SM BR OVC015=

USA.gov is the U.S. government's official web portal to all federal, state and local government web resources and services.